Time;durP1;ratioP1;P1;durP2;ratioP2;P2;SDS_P1;SDS_P2;PMS_P1;PMS_P2;Temp;Humidity;BMP_temperature;BMP_pressure;BME280_temperature;BME280_humidity;BME280_pressure;Samples;Min_cycle;Max_cycle;Signal;HPM_P1;HPM_P2
2022/07/31 00:01:16;;;;;;;7.10;3.50;;;16.80;99.90;;;;;;5071825;28;20024;-44
2022/07/31 00:03:42;;;;;;;9.07;3.10;;;17.50;99.90;;;;;;5073254;28;20147;-43
2022/07/31 00:06:07;;;;;;;6.45;3.45;;;16.90;99.90;;;;;;5071078;28;20138;-43
2022/07/31 00:08:33;;;;;;;8.13;3.60;;;16.90;99.90;;;;;;5074295;28;20040;-44
2022/07/31 00:11:01;;;;;;;8.18;3.35;;;17.70;99.90;;;;;;5072619;28;20063;-42
2022/07/31 00:13:27;;;;;;;8.32;3.80;;;17.00;99.90;;;;;;5072324;28;20044;-43
2022/07/31 00:15:53;;;;;;;7.28;3.70;;;17.00;99.90;;;;;;5072820;28;20066;-42
2022/07/31 00:18:19;;;;;;;7.18;3.22;;;17.20;99.90;;;;;;5073475;28;20198;-42
2022/07/31 00:20:48;;;;;;;9.27;3.42;;;17.70;99.90;;;;;;5073062;28;20448;-43
2022/07/31 00:23:14;;;;;;;10.27;3.28;;;18.60;99.90;;;;;;5073375;28;20093;-43
2022/07/31 00:25:39;;;;;;;9.80;3.50;;;18.40;99.90;;;;;;5074608;28;20483;-42
2022/07/31 00:28:06;;;;;;;8.23;3.58;;;16.80;99.90;;;;;;5074160;28;20044;-45
2022/07/31 00:30:31;;;;;;;6.70;3.72;;;16.80;99.90;;;;;;5074308;28;20068;-44
2022/07/31 00:32:57;;;;;;;8.85;3.70;;;16.40;99.90;;;;;;5072936;28;20131;-44
2022/07/31 00:35:26;;;;;;;8.15;3.80;;;18.10;99.90;;;;;;5072632;28;20648;-45
2022/07/31 00:37:52;;;;;;;7.70;4.15;;;16.30;99.90;;;;;;5074470;28;20515;-47
2022/07/31 00:40:17;;;;;;;6.68;4.10;;;16.30;99.90;;;;;;5073843;28;20153;-48
2022/07/31 00:42:45;;;;;;;6.53;3.72;;;16.30;99.90;;;;;;5072301;28;20059;-44
2022/07/31 00:45:11;;;;;;;9.25;3.58;;;16.30;99.90;;;;;;5073367;28;20059;-46
2022/07/31 00:47:37;;;;;;;8.75;3.42;;;16.80;99.90;;;;;;5073482;28;20036;-46
2022/07/31 00:50:05;;;;;;;6.68;3.63;;;18.10;85.00;;;;;;5074888;28;20129;-48
2022/07/31 00:52:31;;;;;;;6.93;3.35;;;16.00;87.80;;;;;;5072566;28;20043;-47
2022/07/31 00:54:56;;;;;;;9.52;4.55;;;15.90;88.00;;;;;;5073540;28;20044;-44
2022/07/31 00:57:22;;;;;;;7.03;3.28;;;16.00;91.20;;;;;;5072672;28;20032;-45
2022/07/31 00:59:48;;;;;;;8.98;3.00;;;16.00;91.20;;;;;;5073154;28;20040;-43
2022/07/31 01:02:13;;;;;;;6.78;3.10;;;16.20;92.60;;;;;;5072070;28;20090;-46
2022/07/31 01:04:39;;;;;;;7.45;3.28;;;16.10;93.50;;;;;;5072307;28;20360;-42
2022/07/31 01:07:07;;;;;;;11.05;3.10;;;16.10;93.40;;;;;;5071194;28;20040;-42
2022/07/31 01:09:32;;;;;;;6.82;3.20;;;18.00;93.70;;;;;;5070910;28;20039;-46
2022/07/31 01:12:32;;;;;;;8.35;3.53;;;16.20;93.30;;;;;;5072339;28;20036;-43
2022/07/31 01:15:03;;;;;;;8.68;3.78;;;16.30;92.00;;;;;;5073394;28;20420;-42
2022/07/31 01:17:30;;;;;;;7.88;4.05;;;18.30;93.40;;;;;;5072073;28;20044;-44
2022/07/31 01:19:57;;;;;;;6.10;3.38;;;16.10;94.70;;;;;;5074918;28;20088;-42
2022/07/31 01:22:44;;;;;;;5.72;3.45;;;16.20;91.20;;;;;;5077801;28;20054;-46
2022/07/31 01:26:08;;;;;;;8.32;3.53;;;16.20;90.50;;;;;;5092759;28;20051;-43
2022/07/31 01:29:05;;;;;;;8.85;3.40;;;16.50;90.40;;;;;;4999857;28;20630;-43
2022/07/31 01:31:42;;;;;;;8.15;3.00;;;16.40;88.30;;;;;;4999276;28;20129;-44
2022/07/31 01:34:35;;;;;;;7.45;3.30;;;16.50;84.40;;;;;;4998666;28;20057;-46
2022/07/31 01:37:16;;;;;;;6.05;3.38;;;16.40;82.40;;;;;;4997670;28;20119;-42
2022/07/31 01:39:51;;;;;;;6.53;3.30;;;16.40;83.00;;;;;;4999279;28;20042;-44
2022/07/31 01:42:19;;;;;;;7.07;3.60;;;17.80;99.90;;;;;;4998596;28;20041;-46
2022/07/31 01:44:50;;;;;;;8.27;3.35;;;16.50;99.90;;;;;;4999589;28;20053;-42
2022/07/31 01:47:19;;;;;;;6.93;3.40;;;16.50;99.90;;;;;;4999367;28;20045;-44
2022/07/31 01:49:47;;;;;;;8.45;3.30;;;16.90;99.90;;;;;;4997223;28;20041;-45
2022/07/31 01:52:13;;;;;;;5.85;3.65;;;16.70;99.90;;;;;;4997778;28;20147;-46
2022/07/31 01:54:40;;;;;;;8.95;3.58;;;16.80;99.90;;;;;;4997469;28;20360;-42
2022/07/31 01:57:08;;;;;;;8.68;4.20;;;17.70;99.90;;;;;;5000880;28;20586;-43
2022/07/31 01:59:36;;;;;;;8.50;4.32;;;16.70;99.90;;;;;;5044634;28;20056;-42
2022/07/31 02:02:03;;;;;;;10.68;3.83;;;16.80;99.90;;;;;;5091932;28;20159;-42
2022/07/31 02:04:30;;;;;;;7.53;4.30;;;16.60;99.90;;;;;;5077515;28;20040;-48
2022/07/31 02:06:58;;;;;;;7.22;4.25;;;15.50;99.90;;;;;;5076458;28;20071;-42
2022/07/31 02:09:25;;;;;;;6.78;3.83;;;16.80;99.90;;;;;;5073837;28;20504;-44
2022/07/31 02:11:54;;;;;;;9.65;4.28;;;16.80;99.90;;;;;;5076083;28;20036;-42
2022/07/31 02:14:22;;;;;;;7.38;3.65;;;16.70;99.90;;;;;;5076075;28;20131;-42
2022/07/31 02:16:49;;;;;;;6.53;3.20;;;16.70;99.90;;;;;;5076128;28;20066;-44
2022/07/31 02:19:15;;;;;;;6.72;3.55;;;17.30;99.90;;;;;;5075903;28;20496;-44
2022/07/31 02:21:44;;;;;;;6.68;3.55;;;16.70;99.90;;;;;;5076378;28;20039;-45
2022/07/31 02:24:09;;;;;;;7.22;3.15;;;16.80;99.90;;;;;;5073607;28;20045;-43
2022/07/31 02:26:37;;;;;;;8.48;2.60;;;16.90;99.90;;;;;;5075830;28;20484;-47
2022/07/31 02:29:05;;;;;;;7.55;2.80;;;16.90;99.90;;;;;;5074700;28;20083;-46
2022/07/31 02:31:33;;;;;;;7.68;3.10;;;18.20;99.90;;;;;;5076154;28;20047;-44
2022/07/31 02:33:59;;;;;;;5.90;3.20;;;16.70;99.90;;;;;;5074761;28;20044;-43
2022/07/31 02:36:28;;;;;;;8.07;3.38;;;19.00;99.90;;;;;;5074989;28;20052;-42
2022/07/31 02:38:56;;;;;;;5.88;2.75;;;17.00;99.90;;;;;;5075291;28;20044;-43
2022/07/31 02:41:23;;;;;;;7.60;3.10;;;17.00;99.90;;;;;;5074862;28;20052;-42
2022/07/31 02:43:52;;;;;;;5.82;2.85;;;17.40;99.90;;;;;;5074123;28;20067;-42
2022/07/31 02:46:17;;;;;;;7.85;3.13;;;17.00;99.90;;;;;;5075341;28;20032;-44
2022/07/31 02:48:43;;;;;;;5.60;3.22;;;17.10;99.90;;;;;;5074651;28;20077;-43
2022/07/31 02:51:09;;;;;;;7.78;3.00;;;17.00;99.90;;;;;;5075699;28;20039;-43
2022/07/31 02:53:37;;;;;;;7.85;3.50;;;18.90;99.90;;;;;;5074830;28;20067;-44
2022/07/31 02:56:05;;;;;;;5.15;2.85;;;16.80;99.90;;;;;;5075425;28;20056;-42
2022/07/31 02:58:30;;;;;;;6.32;3.17;;;17.10;99.90;;;;;;5073734;28;20044;-45
2022/07/31 03:01:04;;;;;;;9.52;2.97;;;18.60;99.90;;;;;;5073545;28;20062;-42
2022/07/31 03:03:30;;;;;;;8.15;3.15;;;17.20;99.90;;;;;;5074488;28;20036;-44
2022/07/31 03:05:56;;;;;;;7.50;3.00;;;17.60;99.90;;;;;;5074065;28;20040;-42
2022/07/31 03:08:22;;;;;;;7.47;3.05;;;17.00;99.90;;;;;;5072154;28;20142;-44
2022/07/31 03:10:50;;;;;;;6.55;3.40;;;16.90;99.90;;;;;;5075408;28;20666;-44
2022/07/31 03:13:18;;;;;;;6.22;3.30;;;17.10;99.90;;;;;;5073867;28;20032;-43
2022/07/31 03:15:46;;;;;;;6.68;3.50;;;16.90;99.90;;;;;;5074645;28;20047;-43
2022/07/31 03:18:15;;;;;;;6.10;3.30;;;17.20;99.90;;;;;;5074946;28;20043;-45
2022/07/31 03:20:45;;;;;;;7.90;3.20;;;17.60;99.90;;;;;;5075963;28;20809;-43
2022/07/31 03:23:12;;;;;;;5.57;3.30;;;16.90;99.90;;;;;;5073591;28;20032;-42
2022/07/31 03:25:39;;;;;;;6.85;3.25;;;16.90;99.90;;;;;;5075217;28;20632;-46
2022/07/31 03:28:05;;;;;;;6.55;3.72;;;16.80;99.90;;;;;;5075534;28;20077;-44
2022/07/31 03:30:31;;;;;;;8.95;4.00;;;18.80;99.90;;;;;;5075657;28;20541;-44
2022/07/31 03:33:02;;;;;;;7.68;3.97;;;16.60;99.90;;;;;;5074317;28;20044;-42
2022/07/31 03:35:28;;;;;;;7.78;4.00;;;18.70;99.90;;;;;;5074076;28;20050;-43
2022/07/31 03:37:54;;;;;;;9.43;4.38;;;16.70;99.90;;;;;;5074061;28;20132;-42
2022/07/31 03:40:20;;;;;;;10.20;4.40;;;18.00;99.90;;;;;;5072590;28;20134;-44
2022/07/31 03:42:48;;;;;;;6.97;4.15;;;16.90;99.90;;;;;;5074562;28;20097;-45
2022/07/31 03:45:15;;;;;;;12.05;4.43;;;16.60;99.90;;;;;;5074184;28;20042;-43
2022/07/31 03:47:41;;;;;;;7.05;4.43;;;17.30;99.90;;;;;;5074191;28;20048;-43
2022/07/31 03:50:10;;;;;;;7.53;4.68;;;16.20;99.90;;;;;;5074559;28;20088;-44
2022/07/31 03:52:36;;;;;;;8.25;4.70;;;16.40;99.90;;;;;;5074895;28;20036;-44
2022/07/31 03:55:02;;;;;;;11.45;4.70;;;16.20;99.90;;;;;;5074453;28;20127;-42
2022/07/31 03:57:29;;;;;;;7.45;4.68;;;16.30;99.90;;;;;;5073698;28;20038;-43
2022/07/31 03:59:56;;;;;;;9.07;4.38;;;16.30;99.90;;;;;;5074087;28;20032;-42
2022/07/31 04:02:28;;;;;;;8.18;4.88;;;16.10;99.90;;;;;;5073961;28;20188;-44
2022/07/31 04:04:56;;;;;;;9.00;4.50;;;17.00;99.90;;;;;;5073184;28;20039;-43
2022/07/31 04:07:23;;;;;;;7.47;4.82;;;16.20;99.90;;;;;;5071953;28;20333;-43
2022/07/31 04:09:49;;;;;;;6.43;4.13;;;16.30;99.90;;;;;;5073473;28;20040;-42
2022/07/31 04:12:16;;;;;;;6.43;4.60;;;16.20;99.90;;;;;;5073469;28;20036;-43
2022/07/31 04:14:42;;;;;;;7.72;4.13;;;17.60;99.90;;;;;;5073406;28;20036;-43
2022/07/31 04:17:08;;;;;;;7.93;4.85;;;16.10;83.00;;;;;;5072814;28;20036;-42
2022/07/31 04:19:34;;;;;;;9.07;4.70;;;16.30;99.90;;;;;;5073701;28;20097;-44
2022/07/31 04:22:01;;;;;;;7.40;4.88;;;17.00;99.90;;;;;;5074040;28;20047;-45
2022/07/31 04:24:27;;;;;;;8.82;4.93;;;16.20;99.90;;;;;;5073385;28;20151;-43
2022/07/31 04:26:56;;;;;;;9.35;4.88;;;16.20;99.90;;;;;;5073360;28;20035;-42
2022/07/31 04:29:27;;;;;;;7.95;4.80;;;16.30;99.90;;;;;;5073583;28;20109;-43
2022/07/31 04:31:53;;;;;;;6.85;4.72;;;16.20;99.90;;;;;;5073277;28;20819;-42
2022/07/31 04:34:19;;;;;;;7.47;4.35;;;18.40;99.90;;;;;;5073298;28;20042;-43
2022/07/31 04:36:47;;;;;;;8.15;4.75;;;16.20;99.90;;;;;;5074069;28;20056;-48
2022/07/31 04:39:12;;;;;;;6.18;4.65;;;16.40;99.90;;;;;;5072662;28;20071;-43
2022/07/31 04:41:38;;;;;;;6.60;4.45;;;16.40;99.90;;;;;;5073431;28;20131;-43
2022/07/31 04:44:04;;;;;;;7.07;4.90;;;16.40;99.90;;;;;;5072488;28;20579;-48
2022/07/31 04:46:30;;;;;;;6.72;4.63;;;16.40;99.90;;;;;;5075056;28;20040;-47
2022/07/31 04:48:56;;;;;;;7.05;4.50;;;16.40;99.90;;;;;;5072678;28;20535;-46
2022/07/31 04:51:23;;;;;;;8.95;4.38;;;16.70;99.90;;;;;;5072920;28;21055;-47
2022/07/31 04:53:51;;;;;;;8.63;4.30;;;16.40;99.90;;;;;;5076901;28;20118;-45
2022/07/31 04:56:34;;;;;;;8.70;4.82;;;16.50;99.90;;;;;;5077803;28;20447;-47
2022/07/31 04:59:03;;;;;;;9.80;4.43;;;18.80;99.90;;;;;;5077342;28;20075;-48
2022/07/31 05:01:29;;;;;;;6.97;4.45;;;17.30;99.90;;;;;;5075486;28;20070;-44
2022/07/31 05:03:55;;;;;;;7.32;4.53;;;16.70;99.90;;;;;;5077320;28;20148;-45
2022/07/31 05:06:21;;;;;;;7.00;4.70;;;17.90;99.90;;;;;;5076212;28;20044;-48
2022/07/31 05:08:46;;;;;;;8.07;4.80;;;16.80;99.90;;;;;;5076570;28;20075;-46
2022/07/31 05:11:21;;;;;;;6.53;5.03;;;16.90;99.90;;;;;;5077467;28;20123;-47
2022/07/31 05:13:52;;;;;;;6.93;4.43;;;16.90;99.90;;;;;;5076376;28;20048;-46
2022/07/31 05:16:19;;;;;;;9.40;4.50;;;16.90;99.90;;;;;;5076520;28;20567;-47
2022/07/31 05:18:45;;;;;;;7.35;4.63;;;18.80;99.90;;;;;;5077065;28;20121;-48
2022/07/31 05:21:15;;;;;;;8.23;4.68;;;18.10;99.90;;;;;;5076588;28;20036;-47
2022/07/31 05:23:42;;;;;;;8.57;4.85;;;17.10;99.90;;;;;;5076443;28;20036;-45
2022/07/31 05:26:09;;;;;;;9.52;4.88;;;17.30;99.90;;;;;;5076062;28;20476;-48
2022/07/31 05:28:35;;;;;;;6.55;4.57;;;18.10;99.90;;;;;;5076825;28;20040;-48
2022/07/31 05:31:01;;;;;;;7.90;4.55;;;18.60;99.90;;;;;;5075999;28;20044;-43
2022/07/31 05:33:29;;;;;;;8.55;4.45;;;17.80;99.90;;;;;;5076441;28;20040;-46
2022/07/31 05:35:55;;;;;;;9.15;4.32;;;17.30;99.90;;;;;;5076492;28;20044;-43
2022/07/31 05:38:21;;;;;;;8.90;4.70;;;17.50;99.90;;;;;;5075663;28;20075;-47
2022/07/31 05:40:47;;;;;;;11.45;5.15;;;18.90;99.90;;;;;;5076285;28;20059;-46
2022/07/31 05:43:13;;;;;;;7.40;4.55;;;17.40;99.90;;;;;;5076354;28;20433;-47
2022/07/31 05:45:38;;;;;;;9.02;4.90;;;17.50;99.90;;;;;;5071624;28;20042;-47
2022/07/31 05:48:04;;;;;;;8.35;4.75;;;17.40;99.90;;;;;;5075996;28;20091;-49
2022/07/31 05:50:30;;;;;;;9.05;4.95;;;17.40;99.90;;;;;;5077004;28;20489;-44
2022/07/31 05:52:57;;;;;;;9.43;4.60;;;18.10;99.90;;;;;;5078574;28;20058;-45
2022/07/31 05:55:23;;;;;;;8.00;4.38;;;17.70;99.90;;;;;;5076772;28;20037;-45
2022/07/31 05:57:49;;;;;;;8.20;4.32;;;18.00;99.90;;;;;;5076219;28;20054;-46
2022/07/31 06:00:15;;;;;;;8.40;4.60;;;19.60;99.90;;;;;;5075979;28;20101;-45
2022/07/31 06:02:43;;;;;;;9.95;4.57;;;17.70;99.90;;;;;;5076801;28;20040;-47
2022/07/31 06:05:08;;;;;;;6.57;4.32;;;18.70;99.90;;;;;;5075541;28;20607;-49
2022/07/31 06:07:34;;;;;;;7.43;4.97;;;17.90;99.90;;;;;;5074629;28;20048;-46
2022/07/31 06:10:02;;;;;;;11.20;4.85;;;18.40;99.90;;;;;;5075206;28;20127;-45
2022/07/31 06:12:28;;;;;;;9.52;4.95;;;18.00;99.90;;;;;;5075754;28;20048;-49
2022/07/31 06:14:54;;;;;;;8.80;5.18;;;18.10;99.90;;;;;;5075219;28;20043;-49
2022/07/31 06:17:19;;;;;;;6.45;4.63;;;18.30;99.90;;;;;;5075092;28;20047;-45
2022/07/31 06:19:45;;;;;;;11.35;4.85;;;18.30;99.90;;;;;;5075911;28;20040;-46
2022/07/31 06:22:11;;;;;;;7.38;4.35;;;18.20;99.90;;;;;;5077031;28;20817;-47
2022/07/31 06:24:36;;;;;;;8.27;5.05;;;19.20;99.90;;;;;;5075841;28;20039;-47
2022/07/31 06:27:03;;;;;;;7.03;4.55;;;18.50;99.90;;;;;;5076169;28;20051;-47
2022/07/31 06:29:29;;;;;;;8.80;5.20;;;18.50;99.90;;;;;;5073783;28;20036;-48
2022/07/31 06:31:56;;;;;;;8.68;4.35;;;18.40;99.90;;;;;;5076539;28;20466;-49
2022/07/31 06:34:23;;;;;;;10.95;4.97;;;19.10;99.90;;;;;;5073504;28;20132;-43
2022/07/31 06:36:49;;;;;;;8.63;4.80;;;18.80;99.90;;;;;;5074700;28;20477;-48
2022/07/31 06:39:16;;;;;;;9.15;4.90;;;19.60;99.90;;;;;;5076146;28;20051;-48
2022/07/31 06:41:48;;;;;;;9.00;5.10;;;18.80;99.90;;;;;;5075588;28;20032;-47
2022/07/31 06:44:18;;;;;;;11.02;4.90;;;18.70;99.90;;;;;;5075352;28;20036;-46
2022/07/31 06:46:45;;;;;;;6.90;4.65;;;19.10;99.90;;;;;;5075840;28;20052;-46
2022/07/31 06:49:11;;;;;;;14.23;5.28;;;21.10;99.90;;;;;;5074524;28;20043;-46
2022/07/31 06:51:37;;;;;;;8.20;4.90;;;20.40;99.90;;;;;;5075920;28;20037;-47
2022/07/31 06:54:06;;;;;;;9.30;4.75;;;18.80;99.90;;;;;;5075659;28;20047;-46
2022/07/31 06:56:33;;;;;;;9.63;4.85;;;18.90;99.90;;;;;;5074463;28;20817;-47
2022/07/31 06:58:59;;;;;;;11.10;4.95;;;19.60;99.90;;;;;;5075469;28;20368;-49
2022/07/31 07:01:24;;;;;;;9.13;5.10;;;20.50;99.90;;;;;;5074538;28;20258;-48
2022/07/31 07:03:50;;;;;;;6.82;4.57;;;19.80;99.90;;;;;;5075282;28;20041;-47
2022/07/31 07:06:18;;;;;;;8.43;5.00;;;18.90;99.90;;;;;;5075390;28;20413;-48
2022/07/31 07:08:44;;;;;;;8.27;4.50;;;20.10;99.90;;;;;;5073956;28;20054;-48
2022/07/31 07:11:10;;;;;;;7.53;4.68;;;18.90;99.90;;;;;;5074635;28;20043;-48
2022/07/31 07:13:35;;;;;;;8.77;5.10;;;19.00;99.90;;;;;;5075111;28;20047;-47
2022/07/31 07:16:01;;;;;;;8.57;4.90;;;19.20;99.90;;;;;;5073484;28;20040;-47
2022/07/31 07:18:27;;;;;;;7.07;4.63;;;19.30;99.90;;;;;;5074270;28;20361;-45
2022/07/31 07:20:52;;;;;;;7.07;5.07;;;19.30;99.90;;;;;;5074082;28;20032;-47
2022/07/31 07:23:19;;;;;;;10.32;5.63;;;21.20;99.90;;;;;;5075324;28;20040;-46
2022/07/31 07:25:45;;;;;;;8.98;5.70;;;19.40;99.90;;;;;;5074220;28;20504;-47
2022/07/31 07:28:12;;;;;;;8.80;5.05;;;19.50;99.90;;;;;;5072778;28;20068;-47
2022/07/31 07:30:38;;;;;;;10.45;5.22;;;19.50;99.90;;;;;;5072753;28;20040;-44
2022/07/31 07:33:04;;;;;;;8.50;5.78;;;21.50;99.90;;;;;;5073642;28;20668;-45
2022/07/31 07:35:32;;;;;;;11.35;5.72;;;20.00;99.90;;;;;;5073571;28;20034;-45
2022/07/31 07:37:58;;;;;;;10.77;6.03;;;20.00;99.90;;;;;;5074612;28;20048;-43
2022/07/31 07:40:25;;;;;;;10.20;5.53;;;20.10;99.90;;;;;;5073734;28;20094;-45
2022/07/31 07:42:52;;;;;;;9.57;6.07;;;20.40;99.90;;;;;;5074455;28;20040;-47
2022/07/31 07:45:18;;;;;;;9.75;5.63;;;20.30;99.90;;;;;;5073441;28;20047;-44
2022/07/31 07:47:44;;;;;;;9.27;6.30;;;21.10;99.90;;;;;;5073758;28;20502;-48
2022/07/31 07:50:11;;;;;;;9.32;6.00;;;21.20;99.90;;;;;;5073168;28;20035;-44
2022/07/31 07:52:37;;;;;;;9.73;5.90;;;20.60;99.90;;;;;;5072955;28;20085;-45
2022/07/31 07:55:04;;;;;;;11.10;6.53;;;20.60;99.90;;;;;;5073974;28;20527;-44
2022/07/31 07:57:32;;;;;;;13.38;6.70;;;20.60;99.90;;;;;;5074647;28;20451;-47
2022/07/31 07:59:59;;;;;;;10.88;6.28;;;20.50;99.90;;;;;;5073161;28;20043;-45
2022/07/31 08:02:24;;;;;;;8.90;5.63;;;20.50;99.90;;;;;;5072846;28;20036;-48
2022/07/31 08:04:52;;;;;;;9.05;6.35;;;20.40;99.90;;;;;;5073523;28;20557;-45
2022/07/31 08:07:30;;;;;;;11.90;6.47;;;20.40;99.90;;;;;;5072454;28;20036;-44
2022/07/31 08:09:57;;;;;;;10.00;6.20;;;20.60;99.90;;;;;;5072805;28;20055;-45
2022/07/31 08:12:23;;;;;;;19.88;7.05;;;20.70;99.90;;;;;;5073872;28;20514;-44
2022/07/31 08:14:49;;;;;;;10.70;6.15;;;20.60;99.90;;;;;;5050386;28;20083;-45
2022/07/31 08:17:17;;;;;;;11.13;6.50;;;22.80;99.90;;;;;;5073286;28;20032;-44
2022/07/31 08:19:43;;;;;;;13.38;6.78;;;20.50;99.90;;;;;;5073501;28;20040;-43
2022/07/31 08:22:09;;;;;;;10.85;7.00;;;21.20;99.90;;;;;;5074671;28;20415;-44
2022/07/31 08:24:38;;;;;;;18.00;7.18;;;20.40;99.90;;;;;;5072916;28;20067;-44
2022/07/31 08:29:53;;;;;;;14.90;8.07;;;20.20;99.90;;;;;;5072293;28;20131;-45
2022/07/31 08:32:19;;;;;;;15.32;8.13;;;20.30;99.90;;;;;;5072110;28;20605;-45
2022/07/31 08:34:44;;;;;;;11.88;7.72;;;20.50;99.90;;;;;;5072125;28;21110;-46
2022/07/31 08:37:12;;;;;;;15.80;9.60;;;21.20;99.90;;;;;;5072283;28;20121;-45
2022/07/31 08:39:41;;;;;;;14.90;9.15;;;20.20;99.90;;;;;;5071626;28;20123;-46
2022/07/31 08:42:08;;;;;;;14.05;8.98;;;20.40;99.90;;;;;;5072504;28;20040;-46
2022/07/31 08:44:38;;;;;;;14.57;8.80;;;20.20;99.90;;;;;;5072535;28;20093;-45
2022/07/31 08:47:08;;;;;;;12.00;9.27;;;20.30;88.60;;;;;;5072448;28;20032;-46
2022/07/31 08:49:41;;;;;;;13.35;8.98;;;20.10;94.10;;;;;;5072296;28;20048;-50
2022/07/31 08:52:16;;;;;;;12.68;9.60;;;20.00;94.70;;;;;;5072690;28;20446;-46
2022/07/31 08:54:42;;;;;;;15.88;10.63;;;19.90;98.70;;;;;;5072153;28;20040;-48
2022/07/31 08:57:09;;;;;;;16.80;11.73;;;19.80;99.90;;;;;;5072244;28;20040;-47
2022/07/31 08:59:39;;;;;;;16.52;11.05;;;19.60;99.90;;;;;;5072411;28;20040;-47
2022/07/31 09:02:05;;;;;;;13.90;10.82;;;19.60;99.90;;;;;;5072083;28;20048;-49
2022/07/31 09:04:31;;;;;;;17.45;13.52;;;19.50;99.90;;;;;;5071308;28;20036;-47
2022/07/31 09:07:00;;;;;;;23.35;13.20;;;19.20;99.90;;;;;;5072751;28;20048;-46
2022/07/31 09:09:26;;;;;;;15.98;13.07;;;19.50;99.90;;;;;;5072231;28;20040;-48
2022/07/31 09:11:53;;;;;;;18.20;13.65;;;19.40;99.90;;;;;;5070975;28;20072;-48
2022/07/31 09:14:28;;;;;;;20.63;14.18;;;19.60;99.90;;;;;;5072736;28;20067;-49
2022/07/31 09:16:55;;;;;;;23.33;14.23;;;19.80;99.90;;;;;;5072317;28;20036;-47
2022/07/31 09:19:23;;;;;;;20.73;14.90;;;19.50;99.90;;;;;;5072902;28;20589;-49
2022/07/31 09:21:50;;;;;;;18.30;13.32;;;20.70;99.90;;;;;;5073142;28;20043;-48
2022/07/31 09:24:31;;;;;;;19.13;14.52;;;18.70;99.90;;;;;;5074336;28;20094;-49
2022/07/31 09:27:05;;;;;;;19.60;15.40;;;21.40;99.90;;;;;;5072368;28;20071;-45
2022/07/31 09:29:39;;;;;;;20.40;14.02;;;19.30;99.90;;;;;;5070944;28;20048;-46
2022/07/31 09:32:15;;;;;;;20.30;14.23;;;19.40;99.90;;;;;;5074059;28;20044;-46
2022/07/31 09:34:41;;;;;;;20.70;15.02;;;19.30;99.90;;;;;;5072986;28;20044;-49
2022/07/31 09:37:26;;;;;;;22.73;13.68;;;19.30;99.90;;;;;;5071576;28;20304;-50
2022/07/31 09:39:54;;;;;;;19.52;14.80;;;19.40;99.90;;;;;;5074048;28;20040;-50
2022/07/31 09:42:21;;;;;;;24.25;15.82;;;19.30;99.90;;;;;;5075963;28;20515;-46
2022/07/31 09:44:50;;;;;;;26.75;16.17;;;19.80;99.90;;;;;;5076374;28;20044;-49
2022/07/31 09:47:25;;;;;;;21.88;15.48;;;20.00;99.90;;;;;;5077308;28;20089;-48
2022/07/31 09:49:57;;;;;;;21.92;16.17;;;19.80;99.90;;;;;;5076916;28;20070;-51
2022/07/31 09:52:24;;;;;;;23.55;16.35;;;19.30;99.90;;;;;;5076796;28;20527;-47
2022/07/31 09:55:19;;;;;;;27.55;18.50;;;19.20;99.90;;;;;;5076187;28;20051;-48
2022/07/31 09:57:52;;;;;;;26.83;18.75;;;19.10;99.90;;;;;;5052428;28;20064;-48
2022/07/31 10:00:20;;;;;;;22.40;17.25;;;20.90;99.90;;;;;;5052471;28;20104;-49
2022/07/31 10:02:47;;;;;;;26.02;17.50;;;19.40;99.90;;;;;;5052858;28;20320;-48
2022/07/31 10:05:14;;;;;;;20.80;15.80;;;20.30;99.90;;;;;;5053099;28;20037;-49
2022/07/31 10:07:41;;;;;;;24.02;17.67;;;19.60;99.90;;;;;;5053899;28;20056;-50
2022/07/31 10:10:08;;;;;;;27.27;17.90;;;19.70;99.90;;;;;;5052968;28;20293;-50
2022/07/31 10:12:39;;;;;;;23.67;17.10;;;19.40;99.90;;;;;;5052862;28;20496;-49
2022/07/31 10:15:10;;;;;;;26.30;18.02;;;19.40;99.90;;;;;;5052937;28;20135;-50
2022/07/31 10:17:41;;;;;;;21.65;17.50;;;19.50;99.90;;;;;;5052726;28;20056;-50
2022/07/31 10:20:08;;;;;;;21.90;16.60;;;19.40;99.90;;;;;;5052640;28;20412;-47
2022/07/31 10:22:39;;;;;;;23.75;17.77;;;19.20;99.90;;;;;;5052643;28;20124;-50
2022/07/31 10:25:07;;;;;;;22.92;17.77;;;19.40;99.90;;;;;;5053618;28;20708;-48
2022/07/31 10:27:34;;;;;;;25.67;17.27;;;19.30;99.90;;;;;;5052127;28;20109;-50
2022/07/31 10:30:01;;;;;;;27.98;18.92;;;19.30;99.90;;;;;;5035404;28;20052;-49
2022/07/31 10:32:27;;;;;;;27.02;20.20;;;19.20;99.90;;;;;;5052075;28;20190;-51
2022/07/31 10:34:53;;;;;;;24.58;20.50;;;19.10;99.90;;;;;;5070756;28;20539;-48
2022/07/31 10:37:27;;;;;;;25.15;19.20;;;19.20;99.90;;;;;;5074961;28;20052;-48
2022/07/31 10:40:01;;;;;;;24.70;18.50;;;19.30;99.90;;;;;;5075699;28;20134;-49
2022/07/31 10:42:45;;;;;;;19.38;16.52;;;19.30;99.90;;;;;;5074654;28;20097;-49
2022/07/31 10:45:13;;;;;;;20.77;17.38;;;19.30;99.90;;;;;;5075265;28;20043;-49
2022/07/31 10:47:39;;;;;;;19.40;15.45;;;19.20;99.90;;;;;;5076004;28;20043;-47
2022/07/31 10:50:06;;;;;;;24.08;16.33;;;19.20;99.90;;;;;;5076530;28;20526;-47
2022/07/31 10:52:38;;;;;;;20.48;16.45;;;19.00;99.90;;;;;;5075535;28;20062;-46
2022/07/31 10:55:21;;;;;;;21.67;16.65;;;19.30;99.90;;;;;;5077568;28;20119;-48
2022/07/31 10:57:50;;;;;;;21.65;18.15;;;21.20;99.90;;;;;;5074903;28;20051;-46
2022/07/31 11:00:17;;;;;;;26.60;20.20;;;21.00;99.90;;;;;;5075704;28;20048;-50
2022/07/31 11:02:43;;;;;;;20.45;18.35;;;19.20;99.90;;;;;;5074151;28;20040;-50
2022/07/31 11:05:12;;;;;;;29.15;21.52;;;19.00;99.90;;;;;;5075313;28;20048;-44
2022/07/31 11:07:38;;;;;;;26.85;20.88;;;19.10;99.90;;;;;;5073859;28;20139;-49
2022/07/31 11:10:12;;;;;;;25.83;20.77;;;20.00;99.90;;;;;;5075274;28;20040;-47
2022/07/31 11:12:38;;;;;;;26.02;20.05;;;19.10;99.90;;;;;;5075026;28;20064;-46
2022/07/31 11:15:15;;;;;;;28.05;20.40;;;19.20;99.90;;;;;;5072816;28;20090;-48
2022/07/31 11:17:43;;;;;;;24.52;20.88;;;19.20;99.90;;;;;;5073072;28;20036;-47
2022/07/31 11:20:29;;;;;;;25.67;20.13;;;19.00;99.90;;;;;;5072931;28;20457;-48
2022/07/31 11:23:07;;;;;;;32.10;20.90;;;19.10;99.90;;;;;;5073381;28;20051;-46
2022/07/31 11:25:35;;;;;;;23.23;19.73;;;19.20;99.90;;;;;;5070960;28;20699;-49
2022/07/31 11:28:23;;;;;;;31.10;22.48;;;19.20;99.90;;;;;;5073939;28;20040;-50
2022/07/31 11:30:51;;;;;;;23.85;20.33;;;19.80;99.90;;;;;;5072986;28;20070;-49
2022/07/31 11:33:28;;;;;;;29.23;21.65;;;18.90;99.90;;;;;;5073422;28;20043;-48
2022/07/31 11:35:55;;;;;;;29.83;21.48;;;19.00;99.90;;;;;;5072634;28;20056;-48
2022/07/31 11:38:27;;;;;;;26.52;21.20;;;19.00;99.90;;;;;;5073493;28;20132;-50
2022/07/31 11:40:52;;;;;;;28.85;23.02;;;18.80;99.90;;;;;;5073441;28;20500;-49
2022/07/31 11:43:18;;;;;;;28.00;23.08;;;18.80;99.90;;;;;;5073525;28;20047;-48
2022/07/31 11:45:46;;;;;;;27.38;22.08;;;18.80;99.90;;;;;;5072930;28;20548;-48
2022/07/31 11:48:18;;;;;;;25.92;22.02;;;19.00;99.90;;;;;;5073115;28;20073;-49
2022/07/31 11:50:44;;;;;;;27.13;22.35;;;18.60;99.90;;;;;;5072692;28;20040;-48
2022/07/31 11:53:11;;;;;;;27.35;22.60;;;20.60;99.90;;;;;;5053647;28;20127;-48
2022/07/31 11:55:59;;;;;;;29.80;22.52;;;20.10;99.90;;;;;;5074544;28;20044;-46
2022/07/31 11:58:27;;;;;;;27.83;21.77;;;18.80;99.90;;;;;;5073344;28;20047;-47
2022/07/31 12:00:59;;;;;;;25.90;21.27;;;18.70;99.90;;;;;;5073573;28;20400;-50
2022/07/31 12:03:37;;;;;;;27.00;20.60;;;18.90;99.90;;;;;;5071373;28;20036;-48
2022/07/31 12:06:05;;;;;;;32.22;23.33;;;18.70;99.90;;;;;;5072628;28;20051;-45
2022/07/31 12:08:31;;;;;;;23.35;19.20;;;18.70;99.90;;;;;;5066110;28;20757;-49
2022/07/31 12:11:01;;;;;;;26.67;20.20;;;18.90;99.90;;;;;;5071619;28;20052;-47
2022/07/31 12:13:30;;;;;;;26.23;20.45;;;18.70;99.90;;;;;;5072221;28;20092;-49
2022/07/31 12:16:03;;;;;;;28.20;19.45;;;18.60;99.90;;;;;;5072699;28;20495;-49
2022/07/31 12:18:30;;;;;;;22.67;16.60;;;20.40;99.90;;;;;;5073311;28;20097;-48
2022/07/31 12:21:03;;;;;;;19.20;15.55;;;19.00;99.90;;;;;;5073124;28;20047;-48
2022/07/31 12:23:47;;;;;;;18.25;15.38;;;21.00;99.90;;;;;;5073799;28;20039;-45
2022/07/31 12:26:33;;;;;;;21.98;16.17;;;18.50;99.90;;;;;;5072642;28;20079;-49
2022/07/31 12:29:00;;;;;;;22.55;16.17;;;18.70;99.90;;;;;;5072308;28;20443;-49
2022/07/31 12:31:27;;;;;;;19.58;16.35;;;19.90;99.90;;;;;;5071092;28;20035;-49
2022/07/31 12:33:53;;;;;;;25.70;18.45;;;19.00;99.90;;;;;;5072021;28;20514;-49
2022/07/31 12:36:20;;;;;;;22.02;17.15;;;20.30;99.90;;;;;;5070544;28;20047;-48
2022/07/31 12:38:56;;;;;;;23.90;17.38;;;19.00;99.90;;;;;;5072319;28;20132;-45
2022/07/31 12:41:22;;;;;;;20.05;14.27;;;19.50;99.90;;;;;;5072195;28;20047;-46
2022/07/31 12:43:48;;;;;;;15.20;12.85;;;18.70;99.90;;;;;;5072216;28;20428;-48
2022/07/31 12:46:13;;;;;;;16.45;14.43;;;19.70;99.90;;;;;;5073611;28;20040;-49
2022/07/31 12:48:39;;;;;;;15.48;12.93;;;18.70;99.90;;;;;;5071644;28;20043;-48
2022/07/31 12:51:05;;;;;;;19.33;15.00;;;21.10;99.90;;;;;;5071629;28;20059;-47